If you wish to contribute or participate in the discussions about articles you are invited to join SKYbrary as a registered user

 Actions

Shanghai Hongqiao International

From SKYbrary Wiki

ZSSS
Airport
ICAO: ZSSS
Summary
Name Shanghai Hongqiao International
Region Asia and Pacific
Territory China CN.gif
Location Puxi, Shanghai
Serving
Coordinates 31° 11' 38.03" N, 121° 20' 46.85" E
Runways
Designator Length Width Surface ROPS
18/36 3400 m11,154.856 ft <br /> 58 m190.289 ft <br /> ASP no/no


METAR
Observation ZSSS 052230Z 11004MPS 9999 BKN016 28/26 Q1002 NOSIG
Station Shanghai / Hongqiao
Date/Time 05 August 2021 22:30:00
Wind direction 110°
Wind speed kts
Lowest cloud amount broken clouds
Temperature 28°C
Dew point 26°C
Humidity 88%
QNH 1002 hPa
Weather condition n/a

Shanghai Hongqiao International Airport

ICAO: ZSSS IATA: SHA

Description

International airport serving the city of Shanghai.

Climatology

Humid “subtropical” climate (Köppen climate classification Cfa) - characterized by hot, humid summers and cool winters. Significant amounts of precipitation occur in all seasons in most areas. Winter rainfall (and sometimes snowfall) is associated with large storms that the westerlies steer from west to east. Most summer rainfall occurs during thunderstorms.

Maps

Terrain

Loading map...

Airport Layout

Loading map...


Accidents & Serious Incidents at or in vicinity of ZSSS

None on SKYbrary